KRHV 180447Z 32007KT 10SM SKC 18/12 A2995